Time,TemperatureF,DewpointF,PressureIn,WindDirection,WindDirectionDegrees,WindSpeedMPH,WindSpeedGustMPH,Humidity,HourlyPrecipIn,Conditions,Clouds,dailyrainin,SoftwareType,DateUTC
2013-02-27 00:00:00,32.0,28.0,30.20,East,85,0.0,0.0,85,0.00,RA,,0.00,WeatherDisplay:10.37,2013-02-27 05:00:00,
2013-02-27 00:05:00,31.8,25.5,30.20,East,85,0.0,0.0,77,0.00,RA,,0.00,WeatherDisplay:10.37,2013-02-27 05:05:00,
2013-02-27 00:10:00,32.2,25.8,30.20,East,85,0.0,0.0,77,0.00,CLR,,0.00,WeatherDisplay:10.37,2013-02-27 05:10:00,
2013-02-27 00:15:00,32.2,25.8,30.19,East,85,0.0,0.0,77,0.00,CLR,,0.00,WeatherDisplay:10.37,2013-02-27 05:15:00,
2013-02-27 00:20:00,31.7,25.3,30.19,East,85,0.0,0.0,77,0.00,CLR,,0.00,WeatherDisplay:10.37,2013-02-27 05:20:00,
2013-02-27 00:25:00,31.8,25.4,30.18,East,85,0.0,0.0,77,0.00,CLR,,0.00,WeatherDisplay:10.37,2013-02-27 05:25:00,
2013-02-27 00:30:00,31.6,25.2,30.18,East,84,0.0,3.0,77,0.00,CLR,,0.00,WeatherDisplay:10.37,2013-02-27 05:30:00,
2013-02-27 00:35:00,31.7,25.3,30.18,East,88,0.0,3.0,77,0.00,CLR,,0.00,WeatherDisplay:10.37,2013-02-27 05:35:00,
2013-02-27 00:40:00,31.6,25.2,30.17,ESE,107,0.0,0.0,77,0.00,CLR,,0.00,WeatherDisplay:10.37,2013-02-27 05:40:00,
2013-02-27 00:45:00,31.8,24.4,30.17,ESE,119,0.0,0.0,74,0.00,BKN,,0.00,WeatherDisplay:10.37,2013-02-27 05:45:00,
2013-02-27 00:50:00,31.8,24.4,30.17,ESE,119,0.0,0.0,74,0.00,BKN,,0.00,WeatherDisplay:10.37,2013-02-27 05:50:00,
2013-02-27 00:55:00,32.4,25.0,30.17,ESE,119,0.0,0.0,74,0.00,SCT,,0.00,WeatherDisplay:10.37,2013-02-27 05:55:00,
2013-02-27 01:00:00,32.3,24.9,30.18,ESE,119,0.0,0.0,74,0.00,SCT,,0.00,WeatherDisplay:10.37,2013-02-27 06:00:00,
2013-02-27 01:05:00,31.6,25.2,30.18,ESE,119,0.0,0.0,77,0.00,SCT,,0.00,WeatherDisplay:10.37,2013-02-27 06:05:00,
2013-02-27 01:10:00,31.6,25.2,30.17,ESE,119,0.0,0.0,77,0.00,SCT,,0.00,WeatherDisplay:10.37,2013-02-27 06:10:00,
2013-02-27 01:15:00,31.5,25.1,30.17,ESE,119,0.0,0.0,77,0.00,SCT,,0.00,WeatherDisplay:10.37,2013-02-27 06:15:00,
2013-02-27 01:20:00,31.3,25.0,30.17,ESE,119,0.0,0.0,77,0.00,SCT,,0.00,WeatherDisplay:10.37,2013-02-27 06:20:00,
2013-02-27 01:25:00,31.5,25.1,30.17,ESE,119,0.0,0.0,77,0.00,SCT,,0.00,WeatherDisplay:10.37,2013-02-27 06:25:00,
2013-02-27 01:30:00,31.7,25.3,30.17,ESE,119,0.0,0.0,77,0.00,SCT,,0.00,WeatherDisplay:10.37,2013-02-27 06:30:00,
2013-02-27 01:40:00,31.8,25.4,30.16,ESE,119,0.0,0.0,77,0.00,SCT,,0.00,WeatherDisplay:10.37,2013-02-27 06:40:00,
2013-02-27 01:45:00,31.7,25.3,30.15,ESE,119,0.0,0.0,77,0.00,SCT,,0.00,WeatherDisplay:10.37,2013-02-27 06:45:00,
2013-02-27 01:50:00,31.7,25.3,30.15,ESE,119,0.0,0.0,77,0.00,SCT,,0.00,WeatherDisplay:10.37,2013-02-27 06:50:00,
2013-02-27 02:00:00,31.9,25.5,30.14,ESE,119,0.0,0.0,77,0.00,SCT,,0.00,WeatherDisplay:10.37,2013-02-27 07:00:00,
2013-02-27 02:05:00,32.3,25.2,30.14,ESE,119,0.0,0.0,75,0.00,OVC,,0.00,WeatherDisplay:10.37,2013-02-27 07:05:00,
2013-02-27 02:10:00,32.2,25.2,30.14,ESE,119,0.0,0.0,75,0.00,OVC,,0.00,WeatherDisplay:10.37,2013-02-27 07:10:00,
2013-02-27 02:15:00,32.7,25.6,30.14,ESE,119,0.0,0.0,75,0.00,OVC,,0.00,WeatherDisplay:10.37,2013-02-27 07:15:00,
2013-02-27 02:20:00,32.2,25.2,30.14,ESE,119,0.0,0.0,75,0.00,OVC,,0.00,WeatherDisplay:10.37,2013-02-27 07:20:00,
2013-02-27 02:25:00,32.4,25.3,30.14,ESE,119,0.0,0.0,75,0.00,OVC,,0.00,WeatherDisplay:10.37,2013-02-27 07:25:00,
2013-02-27 02:35:00,32.5,25.5,30.13,ESE,112,2.0,8.0,75,0.00,OVC,,0.00,WeatherDisplay:10.37,2013-02-27 07:35:00,
2013-02-27 02:40:00,32.5,25.4,30.13,East,90,5.0,8.0,75,0.00,OVC,,0.00,WeatherDisplay:10.37,2013-02-27 07:40:00,
2013-02-27 02:45:00,32.4,25.4,30.13,East,82,1.0,7.0,75,0.00,OVC,,0.00,WeatherDisplay:10.37,2013-02-27 07:45:00,
2013-02-27 02:50:00,32.5,25.5,30.14,East,87,1.0,5.0,75,0.00,OVC,,0.00,WeatherDisplay:10.37,2013-02-27 07:50:00,
2013-02-27 03:00:00,32.5,25.5,30.15,East,85,0.0,6.0,75,0.00,OVC,,0.00,WeatherDisplay:10.37,2013-02-27 08:00:00,
2013-02-27 03:05:00,32.4,26.3,30.15,East,85,0.0,3.0,78,0.00,OVC,,0.00,WeatherDisplay:10.37,2013-02-27 08:05:00,
2013-02-27 03:15:00,32.6,27.1,30.14,East,84,1.0,6.0,80,0.00,OVC,,0.00,WeatherDisplay:10.37,2013-02-27 08:15:00,
2013-02-27 03:20:00,32.7,27.2,30.14,East,85,0.0,0.0,80,0.00,OVC,,0.00,WeatherDisplay:10.37,2013-02-27 08:20:00,
2013-02-27 03:25:00,32.6,27.1,30.14,East,86,0.0,0.0,80,0.00,OVC,,0.00,WeatherDisplay:10.37,2013-02-27 08:25:00,
2013-02-27 03:30:00,32.4,26.9,30.14,East,86,1.0,6.0,80,0.00,OVC,,0.00,WeatherDisplay:10.37,2013-02-27 08:30:00,
2013-02-27 03:35:00,32.4,26.9,30.14,East,80,0.0,7.0,80,0.00,OVC,,0.00,WeatherDisplay:10.37,2013-02-27 08:35:00,
2013-02-27 03:40:00,32.3,26.8,30.14,East,79,1.0,3.0,80,0.00,OVC,,0.00,WeatherDisplay:10.37,2013-02-27 08:40:00,
2013-02-27 03:45:00,32.5,27.0,30.14,East,94,0.0,0.0,80,0.00,OVC,,0.00,WeatherDisplay:10.37,2013-02-27 08:45:00,
2013-02-27 03:55:00,31.8,26.3,30.14,ESE,102,0.0,0.0,80,0.00,OVC,,0.00,WeatherDisplay:10.37,2013-02-27 08:55:00,
2013-02-27 04:05:00,31.8,24.7,30.13,ESE,102,0.0,0.0,75,0.00,-SN,,0.00,WeatherDisplay:10.37,2013-02-27 09:05:00,
2013-02-27 04:15:00,31.5,24.5,30.10,East,90,0.0,0.0,75,0.00,-SN,,0.00,WeatherDisplay:10.37,2013-02-27 09:15:00,
2013-02-27 04:20:00,31.4,24.4,30.11,ENE,76,1.0,9.0,75,0.00,-SN,,0.00,WeatherDisplay:10.37,2013-02-27 09:20:00,
2013-02-27 04:25:00,31.3,24.3,30.11,ENE,78,0.0,7.0,75,0.00,-SN,,0.00,WeatherDisplay:10.37,2013-02-27 09:25:00,
2013-02-27 04:30:00,31.3,24.3,30.11,East,83,0.0,0.0,75,0.00,-SN,,0.00,WeatherDisplay:10.37,2013-02-27 09:30:00,
2013-02-27 04:35:00,31.5,26.0,30.11,East,82,0.0,6.0,80,0.00,-SN,,0.00,WeatherDisplay:10.37,2013-02-27 09:35:00,
2013-02-27 04:45:00,31.2,25.8,30.11,ENE,78,0.0,11.0,80,0.00,-SN,,0.00,WeatherDisplay:10.37,2013-02-27 09:45:00,
2013-02-27 04:50:00,31.2,25.7,30.10,East,98,0.0,5.0,80,0.00,-SN,,0.00,WeatherDisplay:10.37,2013-02-27 09:50:00,
2013-02-27 04:55:00,31.3,29.3,30.10,ESE,104,1.0,5.0,92,0.00,-SN,,0.00,WeatherDisplay:10.37,2013-02-27 09:55:00,
2013-02-27 05:00:00,31.3,29.2,30.10,ESE,105,0.0,3.0,92,0.00,-SN,,0.00,WeatherDisplay:10.37,2013-02-27 10:00:00,
2013-02-27 05:05:00,31.2,29.2,30.10,ESE,110,0.0,0.0,92,0.00,-SN,,0.00,WeatherDisplay:10.37,2013-02-27 10:05:00,
2013-02-27 05:15:00,31.2,29.2,30.09,ESE,112,0.0,0.0,92,0.00,-SN,,0.00,WeatherDisplay:10.37,2013-02-27 10:15:00,
2013-02-27 05:20:00,31.1,29.1,30.09,ESE,112,0.0,0.0,92,0.00,-SN,,0.00,WeatherDisplay:10.37,2013-02-27 10:20:00,
2013-02-27 05:25:00,31.3,29.2,30.09,ESE,112,0.0,0.0,92,0.00,-SN,,0.00,WeatherDisplay:10.37,2013-02-27 10:25:00,
2013-02-27 05:30:00,31.2,29.2,30.08,ESE,112,0.0,0.0,92,0.00,-SN,,0.00,WeatherDisplay:10.37,2013-02-27 10:30:00,
2013-02-27 05:35:00,31.2,29.2,30.08,ESE,112,0.0,0.0,92,0.00,-SN,,0.00,WeatherDisplay:10.37,2013-02-27 10:35:00,
2013-02-27 05:40:00,31.3,29.2,30.08,ESE,112,0.0,0.0,92,0.00,-SN,,0.00,WeatherDisplay:10.37,2013-02-27 10:40:00,
2013-02-27 05:45:00,31.2,29.2,30.07,ESE,112,0.0,0.0,92,0.00,-SN,,0.00,WeatherDisplay:10.37,2013-02-27 10:45:00,
2013-02-27 05:50:00,31.3,29.3,30.07,ESE,112,0.0,0.0,92,0.00,-SN,,0.00,WeatherDisplay:10.37,2013-02-27 10:50:00,
2013-02-27 05:55:00,31.2,29.1,30.07,ESE,112,0.0,0.0,92,0.00,-SN,,0.00,WeatherDisplay:10.37,2013-02-27 10:55:00,
2013-02-27 06:05:00,31.2,30.0,30.07,ESE,112,0.0,0.0,95,0.00,-SN,,0.00,WeatherDisplay:10.37,2013-02-27 11:05:00,
2013-02-27 06:15:00,31.3,29.2,30.06,ESE,112,0.0,0.0,92,0.00,-SN,,0.00,WeatherDisplay:10.37,2013-02-27 11:15:00,
2013-02-27 06:20:00,31.5,29.4,30.06,ESE,112,0.0,0.0,92,0.00,-SN,,0.00,WeatherDisplay:10.37,2013-02-27 11:20:00,
2013-02-27 06:25:00,31.5,29.4,30.06,ESE,112,0.0,0.0,92,0.00,-SN,,0.00,WeatherDisplay:10.37,2013-02-27 11:25:00,
2013-02-27 06:30:00,31.4,29.4,30.06,ESE,112,0.0,0.0,92,0.00,-SN,,0.00,WeatherDisplay:10.37,2013-02-27 11:30:00,
2013-02-27 06:35:00,31.5,29.4,30.05,ESE,112,0.0,0.0,92,0.00,-SN,,0.00,WeatherDisplay:10.37,2013-02-27 11:35:00,
2013-02-27 06:40:00,31.6,29.5,30.05,ESE,112,0.0,0.0,92,0.00,-SN,,0.00,WeatherDisplay:10.37,2013-02-27 11:40:00,
2013-02-27 06:45:00,31.7,29.7,30.05,ESE,112,0.0,0.0,92,0.00,-SN,,0.00,WeatherDisplay:10.37,2013-02-27 11:45:00,
2013-02-27 06:50:00,31.6,29.5,30.04,ESE,112,0.0,0.0,92,0.00,-SN,,0.00,WeatherDisplay:10.37,2013-02-27 11:50:00,
2013-02-27 06:55:00,31.6,29.5,30.04,ESE,112,0.0,0.0,92,0.00,-SN,,0.00,WeatherDisplay:10.37,2013-02-27 11:55:00,
2013-02-27 07:00:00,31.7,29.7,30.03,ESE,112,0.0,0.0,92,0.00,-SN,,0.00,WeatherDisplay:10.37,2013-02-27 12:00:00,
2013-02-27 07:05:00,31.8,29.7,30.03,ESE,112,0.0,0.0,92,0.00,-SN,,0.00,WeatherDisplay:10.37,2013-02-27 12:05:00,
2013-02-27 07:10:00,31.8,29.7,30.03,ESE,112,0.0,0.0,92,0.00,-SN,,0.00,WeatherDisplay:10.37,2013-02-27 12:10:00,
2013-02-27 07:15:00,31.7,29.6,30.02,ESE,112,0.0,0.0,92,0.00,-SN,,0.00,WeatherDisplay:10.37,2013-02-27 12:15:00,
2013-02-27 07:20:00,31.8,29.8,30.02,ESE,112,0.0,0.0,92,0.00,-SN,,0.00,WeatherDisplay:10.37,2013-02-27 12:20:00,
2013-02-27 07:25:00,31.8,29.7,30.02,ESE,112,0.0,0.0,92,0.00,-SN,,0.00,WeatherDisplay:10.37,2013-02-27 12:25:00,
2013-02-27 07:30:00,31.8,29.7,30.02,ESE,112,0.0,0.0,92,0.00,-SN,,0.00,WeatherDisplay:10.37,2013-02-27 12:30:00,
2013-02-27 07:35:00,31.8,29.7,30.02,ESE,112,0.0,0.0,92,0.00,-SN,,0.00,WeatherDisplay:10.37,2013-02-27 12:35:00,
2013-02-27 07:40:00,31.8,29.7,30.02,ESE,112,0.0,0.0,92,0.00,-SN,,0.00,WeatherDisplay:10.37,2013-02-27 12:40:00,
2013-02-27 07:45:00,31.8,29.8,30.01,ESE,112,0.0,0.0,92,0.00,-SN,,0.00,WeatherDisplay:10.37,2013-02-27 12:45:00,
2013-02-27 07:50:00,31.9,29.8,30.02,ESE,112,0.0,0.0,92,0.00,-SN,,0.00,WeatherDisplay:10.37,2013-02-27 12:50:00,
2013-02-27 07:55:00,31.9,29.9,30.02,ESE,112,0.0,0.0,92,0.00,-SN,,0.00,WeatherDisplay:10.37,2013-02-27 12:55:00,
2013-02-27 08:00:00,31.9,29.9,30.01,ESE,112,0.0,0.0,92,0.00,-SN,,0.00,WeatherDisplay:10.37,2013-02-27 13:00:00,
2013-02-27 08:05:00,31.9,29.9,30.01,ESE,112,0.0,0.0,92,0.00,-SN,,0.00,WeatherDisplay:10.37,2013-02-27 13:05:00,
2013-02-27 08:10:00,31.9,29.9,30.01,ESE,112,0.0,0.0,92,0.00,-SN,,0.00,WeatherDisplay:10.37,2013-02-27 13:10:00,
2013-02-27 08:15:00,31.9,29.8,30.00,ESE,112,0.0,0.0,92,0.00,-SN,,0.00,WeatherDisplay:10.37,2013-02-27 13:15:00,
2013-02-27 08:20:00,31.9,29.8,30.00,ESE,112,0.0,0.0,92,0.00,-SN,,0.00,WeatherDisplay:10.37,2013-02-27 13:20:00,
2013-02-27 08:25:00,32.0,30.0,30.00,ESE,112,0.0,0.0,92,0.00,-SN,,0.00,WeatherDisplay:10.37,2013-02-27 13:25:00,
2013-02-27 08:30:00,32.1,30.0,29.99,ESE,112,0.0,0.0,92,0.00,-SN,,0.00,WeatherDisplay:10.37,2013-02-27 13:30:00,
2013-02-27 08:35:00,32.3,30.2,30.00,ESE,112,0.0,0.0,92,0.00,-SN,,0.00,WeatherDisplay:10.37,2013-02-27 13:35:00,
2013-02-27 08:40:00,32.5,30.4,29.99,ESE,112,0.0,0.0,92,0.00,-SN,,0.00,WeatherDisplay:10.37,2013-02-27 13:40:00,
2013-02-27 08:50:00,32.6,30.5,29.99,ESE,112,0.0,0.0,92,0.00,-SN,,0.00,WeatherDisplay:10.37,2013-02-27 13:50:00,
2013-02-27 08:55:00,32.7,30.7,29.98,ESE,112,0.0,0.0,92,0.00,-SN,,0.00,WeatherDisplay:10.37,2013-02-27 13:55:00,
2013-02-27 09:00:00,32.6,30.6,29.98,ESE,112,0.0,0.0,92,0.00,-SN,,0.00,WeatherDisplay:10.37,2013-02-27 14:00:00,
2013-02-27 09:05:00,33.0,30.9,29.98,ESE,112,0.0,0.0,92,0.00,OVC,,0.00,WeatherDisplay:10.37,2013-02-27 14:05:00,
2013-02-27 09:10:00,32.9,30.8,29.97,ESE,112,0.0,0.0,92,0.00,OVC,,0.00,WeatherDisplay:10.37,2013-02-27 14:10:00,
2013-02-27 09:15:00,32.8,30.8,29.97,ESE,112,0.0,0.0,92,0.00,OVC,,0.00,WeatherDisplay:10.37,2013-02-27 14:15:00,
2013-02-27 09:25:00,32.6,30.6,29.96,ESE,112,0.0,0.0,92,0.00,OVC,,0.00,WeatherDisplay:10.37,2013-02-27 14:25:00,
2013-02-27 09:30:00,32.5,30.5,29.96,ESE,112,0.0,0.0,92,0.00,OVC,,0.00,WeatherDisplay:10.37,2013-02-27 14:30:00,
2013-02-27 09:40:00,32.9,30.9,29.96,ESE,112,0.0,0.0,92,0.00,OVC,,0.00,WeatherDisplay:10.37,2013-02-27 14:40:00,
2013-02-27 09:45:00,32.8,30.7,29.95,ESE,112,0.0,0.0,92,0.00,OVC,,0.00,WeatherDisplay:10.37,2013-02-27 14:45:00,
2013-02-27 09:50:00,32.2,30.1,29.95,ESE,112,0.0,0.0,92,0.00,OVC,,0.00,WeatherDisplay:10.37,2013-02-27 14:50:00,
2013-02-27 10:00:00,32.6,30.5,29.95,ESE,112,0.0,0.0,92,0.00,OVC,,0.00,WeatherDisplay:10.37,2013-02-27 15:00:00,
2013-02-27 10:05:00,32.9,30.9,29.95,ESE,112,0.0,0.0,92,0.00,-RA,,0.00,WeatherDisplay:10.37,2013-02-27 15:05:00,
2013-02-27 10:10:00,33.1,31.0,29.94,ESE,112,0.0,0.0,92,0.00,-RA,,0.00,WeatherDisplay:10.37,2013-02-27 15:10:00,
2013-02-27 10:20:00,33.5,31.4,29.94,ESE,112,0.0,0.0,92,0.00,-RA,,0.00,WeatherDisplay:10.37,2013-02-27 15:20:00,
2013-02-27 10:25:00,32.8,30.7,29.93,ESE,112,0.0,0.0,92,0.00,-RA,,0.00,WeatherDisplay:10.37,2013-02-27 15:25:00,
2013-02-27 10:30:00,33.0,30.9,29.93,ESE,112,0.0,0.0,92,0.00,-RA,,0.00,WeatherDisplay:10.37,2013-02-27 15:30:00,
2013-02-27 10:35:00,33.2,31.1,29.93,ESE,112,0.0,0.0,92,0.00,-RA,,0.00,WeatherDisplay:10.37,2013-02-27 15:35:00,
2013-02-27 10:40:00,33.1,31.0,29.92,ESE,112,0.0,0.0,92,0.00,-RA,,0.00,WeatherDisplay:10.37,2013-02-27 15:40:00,
2013-02-27 10:45:00,32.8,30.7,29.92,ESE,112,0.0,0.0,92,0.00,-RA,,0.00,WeatherDisplay:10.37,2013-02-27 15:45:00,
2013-02-27 10:50:00,33.6,31.5,29.92,ESE,112,0.0,0.0,92,0.00,-RA,,0.00,WeatherDisplay:10.37,2013-02-27 15:50:00,
2013-02-27 10:55:00,33.4,31.3,29.91,ESE,112,0.0,0.0,92,0.00,-RA,,0.00,WeatherDisplay:10.37,2013-02-27 15:55:00,
2013-02-27 11:00:00,33.2,31.1,29.91,ESE,112,0.0,0.0,92,0.00,-RA,,0.00,WeatherDisplay:10.37,2013-02-27 16:00:00,
2013-02-27 11:05:00,33.9,31.8,29.91,ESE,112,0.0,0.0,92,0.00,-RA,,0.00,WeatherDisplay:10.37,2013-02-27 16:05:00,
2013-02-27 11:10:00,33.7,31.6,29.90,ESE,112,0.0,0.0,92,0.00,-RA,,0.00,WeatherDisplay:10.37,2013-02-27 16:10:00,
2013-02-27 11:15:00,33.7,31.6,29.89,ESE,112,0.0,0.0,92,0.00,-RA,,0.00,WeatherDisplay:10.37,2013-02-27 16:15:00,
2013-02-27 11:20:00,33.6,31.5,29.89,ESE,112,0.0,0.0,92,0.00,-RA,,0.00,WeatherDisplay:10.37,2013-02-27 16:20:00,
2013-02-27 11:25:00,33.8,31.7,29.89,ESE,112,0.0,0.0,92,0.00,-RA,,0.00,WeatherDisplay:10.37,2013-02-27 16:25:00,
2013-02-27 11:30:00,33.7,31.6,29.89,ESE,112,0.0,0.0,92,0.00,-RA,,0.00,WeatherDisplay:10.37,2013-02-27 16:30:00,
2013-02-27 11:35:00,33.6,31.5,29.88,ESE,112,0.0,0.0,92,0.00,-RA,,0.00,WeatherDisplay:10.37,2013-02-27 16:35:00,
2013-02-27 11:40:00,33.8,31.7,29.88,ESE,112,0.0,0.0,92,0.00,-RA,,0.00,WeatherDisplay:10.37,2013-02-27 16:40:00,
2013-02-27 11:50:00,34.0,31.9,29.87,ESE,112,0.0,0.0,92,0.00,-RA,,0.00,WeatherDisplay:10.37,2013-02-27 16:50:00,
2013-02-27 11:55:00,34.2,32.1,29.87,ESE,112,0.0,0.0,92,0.00,-RA,,0.00,WeatherDisplay:10.37,2013-02-27 16:55:00,
2013-02-27 12:00:00,34.1,32.0,29.87,ESE,112,0.0,0.0,92,0.00,-RA,,0.00,WeatherDisplay:10.37,2013-02-27 17:00:00,
2013-02-27 12:10:00,32.8,30.7,29.87,ESE,112,0.0,0.0,92,0.00,-RA,,0.00,WeatherDisplay:10.37,2013-02-27 17:10:00,
2013-02-27 12:15:00,34.0,31.9,29.86,ESE,112,0.0,0.0,92,0.00,-RA,,0.00,WeatherDisplay:10.37,2013-02-27 17:15:00,
2013-02-27 12:20:00,33.7,31.6,29.86,ESE,112,0.0,0.0,92,0.00,-RA,,0.00,WeatherDisplay:10.37,2013-02-27 17:20:00,
2013-02-27 12:25:00,33.9,32.1,29.85,ESE,112,0.0,0.0,93,0.00,-RA,,0.00,WeatherDisplay:10.37,2013-02-27 17:25:00,
2013-02-27 12:30:00,33.8,32.0,29.84,ESE,112,0.0,0.0,93,0.00,-RA,,0.00,WeatherDisplay:10.37,2013-02-27 17:30:00,
2013-02-27 12:35:00,34.1,32.3,29.84,ESE,112,0.0,0.0,93,0.00,-RA,,0.00,WeatherDisplay:10.37,2013-02-27 17:35:00,
2013-02-27 12:40:00,34.3,32.5,29.84,ESE,112,0.0,0.0,93,0.00,-RA,,0.00,WeatherDisplay:10.37,2013-02-27 17:40:00,
2013-02-27 12:50:00,34.0,32.2,29.83,ESE,112,0.0,0.0,93,0.00,-RA,,0.00,WeatherDisplay:10.37,2013-02-27 17:50:00,
2013-02-27 12:55:00,34.6,32.8,29.83,ESE,112,0.0,0.0,93,0.00,-RA,,0.00,WeatherDisplay:10.37,2013-02-27 17:55:00,
2013-02-27 13:00:00,34.4,32.6,29.83,ESE,112,0.0,0.0,93,0.00,-RA,,0.00,WeatherDisplay:10.37,2013-02-27 18:00:00,
2013-02-27 13:05:00,34.7,31.5,29.83,ESE,112,0.0,0.0,88,0.00,-RA,,0.00,WeatherDisplay:10.37,2013-02-27 18:05:00,
2013-02-27 13:10:00,34.1,30.9,29.82,ESE,112,0.0,0.0,88,0.00,-RA,,0.00,WeatherDisplay:10.37,2013-02-27 18:10:00,
2013-02-27 13:15:00,34.0,30.8,29.82,ESE,112,0.0,0.0,88,0.00,-RA,,0.00,WeatherDisplay:10.37,2013-02-27 18:15:00,
2013-02-27 13:20:00,33.8,30.6,29.82,ESE,112,0.0,0.0,88,0.00,-RA,,0.00,WeatherDisplay:10.37,2013-02-27 18:20:00,
2013-02-27 13:25:00,33.8,30.6,29.82,ESE,112,0.0,0.0,88,0.00,-RA,,0.00,WeatherDisplay:10.37,2013-02-27 18:25:00,
2013-02-27 13:30:00,34.0,30.8,29.82,ESE,110,2.0,10.0,88,0.00,-RA,,0.00,WeatherDisplay:10.37,2013-02-27 18:30:00,
2013-02-27 13:35:00,33.9,30.7,29.82,East,88,0.0,10.0,88,0.00,-RA,,0.00,WeatherDisplay:10.37,2013-02-27 18:35:00,
2013-02-27 13:40:00,34.2,31.0,29.82,ENE,74,0.0,0.0,88,0.00,-RA,,0.00,WeatherDisplay:10.37,2013-02-27 18:40:00,
2013-02-27 13:45:00,34.0,30.8,29.82,ENE,71,1.0,6.0,88,0.00,-RA,,0.00,WeatherDisplay:10.37,2013-02-27 18:45:00,
2013-02-27 13:50:00,33.9,30.8,29.81,ENE,64,1.0,8.0,88,0.00,-RA,,0.00,WeatherDisplay:10.37,2013-02-27 18:50:00,
2013-02-27 13:55:00,33.8,32.0,29.81,NE,48,2.0,6.0,93,0.00,-RA,,0.00,WeatherDisplay:10.37,2013-02-27 18:55:00,
2013-02-27 14:00:00,33.9,32.0,29.81,NNE,14,0.0,5.0,93,0.00,-RA,,0.00,WeatherDisplay:10.37,2013-02-27 19:00:00,
2013-02-27 14:05:00,33.3,30.4,29.81,North,360,0.0,0.0,89,0.00,-RA,,0.00,WeatherDisplay:10.37,2013-02-27 19:05:00,
2013-02-27 14:10:00,33.6,30.7,29.80,North,360,0.0,0.0,89,0.00,-RA,,0.00,WeatherDisplay:10.37,2013-02-27 19:10:00,
2013-02-27 14:15:00,33.5,29.8,29.81,North,360,0.0,0.0,86,0.00,OVC,,0.00,WeatherDisplay:10.37,2013-02-27 19:15:00,
2013-02-27 14:20:00,33.5,29.8,29.82,North,360,0.0,0.0,86,0.00,OVC,,0.00,WeatherDisplay:10.37,2013-02-27 19:20:00,
2013-02-27 14:25:00,33.1,29.4,29.82,North,360,0.0,0.0,86,0.01,-SN,,0.01,WeatherDisplay:10.37,2013-02-27 19:25:00,
2013-02-27 14:30:00,33.4,29.6,29.82,NNE,33,0.0,9.0,86,0.00,-SN,,0.01,WeatherDisplay:10.37,2013-02-27 19:30:00,
2013-02-27 14:35:00,33.2,31.4,29.82,East,85,0.0,5.0,93,0.00,-SN,,0.01,WeatherDisplay:10.37,2013-02-27 19:35:00,
2013-02-27 14:40:00,33.3,31.5,29.81,East,95,0.0,6.0,93,0.01,-SN,,0.02,WeatherDisplay:10.37,2013-02-27 19:40:00,
2013-02-27 14:45:00,33.0,31.2,29.82,East,97,0.0,0.0,93,0.00,-SN,,0.02,WeatherDisplay:10.37,2013-02-27 19:45:00,
2013-02-27 14:50:00,32.5,30.7,29.81,East,91,2.0,6.0,93,0.01,-SN,,0.03,WeatherDisplay:10.37,2013-02-27 19:50:00,
2013-02-27 14:55:00,32.0,30.3,29.81,East,79,0.0,3.0,93,0.00,-SN,,0.03,WeatherDisplay:10.37,2013-02-27 19:55:00,
2013-02-27 15:00:00,31.9,30.1,29.81,ENE,65,1.0,8.0,93,0.00,-SN,,0.03,WeatherDisplay:10.37,2013-02-27 20:00:00,
2013-02-27 15:05:00,32.6,30.8,29.82,ENE,78,0.0,0.0,93,0.01,-SN,,0.04,WeatherDisplay:10.37,2013-02-27 20:05:00,
2013-02-27 15:10:00,32.7,30.9,29.82,East,90,0.0,0.0,93,0.00,-SN,,0.04,WeatherDisplay:10.37,2013-02-27 20:10:00,
2013-02-27 15:20:00,33.3,31.5,29.81,East,84,0.0,0.0,93,0.01,-SN,,0.05,WeatherDisplay:10.37,2013-02-27 20:20:00,
2013-02-27 15:30:00,31.8,30.0,29.81,ENE,70,0.0,7.0,93,0.00,-SN,,0.05,WeatherDisplay:10.37,2013-02-27 20:30:00,
2013-02-27 15:35:00,31.9,30.1,29.80,NE,48,0.0,6.0,93,0.00,-SN,,0.05,WeatherDisplay:10.37,2013-02-27 20:35:00,
2013-02-27 15:40:00,32.1,30.3,29.80,NE,39,0.0,0.0,93,0.01,-SN,,0.06,WeatherDisplay:10.37,2013-02-27 20:40:00,
2013-02-27 15:45:00,32.6,30.8,29.80,NE,38,0.0,0.0,93,0.00,-SN,,0.06,WeatherDisplay:10.37,2013-02-27 20:45:00,
2013-02-27 15:50:00,32.8,31.0,29.80,NE,38,0.0,0.0,93,0.00,-SN,,0.06,WeatherDisplay:10.37,2013-02-27 20:50:00,
2013-02-27 15:55:00,33.2,31.4,29.80,NE,38,0.0,0.0,93,0.00,-SN,,0.06,WeatherDisplay:10.37,2013-02-27 20:55:00,
2013-02-27 16:00:00,32.0,30.2,29.79,NE,38,0.0,0.0,93,0.00,-SN,,0.06,WeatherDisplay:10.37,2013-02-27 21:00:00,
2013-02-27 16:05:00,32.1,28.9,29.78,NE,38,0.0,0.0,88,0.01,-SN,,0.07,WeatherDisplay:10.37,2013-02-27 21:05:00,
2013-02-27 16:10:00,31.9,28.7,29.78,NE,38,0.0,0.0,88,0.00,-SN,,0.07,WeatherDisplay:10.37,2013-02-27 21:10:00,
2013-02-27 16:15:00,31.8,28.7,29.78,NE,38,0.0,0.0,88,0.00,-SN,,0.07,WeatherDisplay:10.37,2013-02-27 21:15:00,
2013-02-27 16:20:00,31.8,28.6,29.78,NE,38,0.0,0.0,88,0.00,-SN,,0.07,WeatherDisplay:10.37,2013-02-27 21:20:00,
2013-02-27 16:25:00,31.8,28.1,29.77,NE,38,0.0,0.0,86,0.00,-SN,,0.07,WeatherDisplay:10.37,2013-02-27 21:25:00,
2013-02-27 16:30:00,31.8,28.1,29.76,NE,38,0.0,0.0,86,0.00,-SN,,0.07,WeatherDisplay:10.37,2013-02-27 21:30:00,
2013-02-27 16:35:00,31.8,28.1,29.77,NE,38,0.0,0.0,86,0.00,-SN,,0.07,WeatherDisplay:10.37,2013-02-27 21:35:00,
2013-02-27 16:40:00,31.8,28.1,29.77,NE,38,0.0,0.0,86,0.00,-SN,,0.07,WeatherDisplay:10.37,2013-02-27 21:40:00,
2013-02-27 16:45:00,31.9,28.1,29.77,NE,38,0.0,0.0,86,0.01,-SN,,0.08,WeatherDisplay:10.37,2013-02-27 21:45:00,
2013-02-27 16:50:00,31.9,28.1,29.77,NE,38,0.0,0.0,86,0.00,-SN,,0.08,WeatherDisplay:10.37,2013-02-27 21:50:00,
2013-02-27 16:55:00,31.8,28.1,29.76,NE,38,0.0,0.0,86,0.00,-SN,,0.08,WeatherDisplay:10.37,2013-02-27 21:55:00,
2013-02-27 17:00:00,31.8,28.1,29.76,NE,38,0.0,0.0,86,0.00,-SN,,0.08,WeatherDisplay:10.37,2013-02-27 22:00:00,
2013-02-27 17:05:00,31.8,29.5,29.77,NE,38,0.0,0.0,91,0.00,-SN,,0.08,WeatherDisplay:10.37,2013-02-27 22:05:00,
2013-02-27 17:10:00,31.9,29.5,29.77,NE,38,0.0,0.0,91,0.00,-SN,,0.08,WeatherDisplay:10.37,2013-02-27 22:10:00,
2013-02-27 17:15:00,31.8,29.5,29.77,NE,38,0.0,0.0,91,0.00,-SN,,0.08,WeatherDisplay:10.37,2013-02-27 22:15:00,
2013-02-27 17:20:00,31.8,29.5,29.77,NE,38,0.0,0.0,91,0.00,-SN,,0.08,WeatherDisplay:10.37,2013-02-27 22:20:00,
2013-02-27 17:25:00,31.8,28.1,29.77,NE,38,0.0,0.0,86,0.00,-SN,,0.08,WeatherDisplay:10.37,2013-02-27 22:25:00,
2013-02-27 17:30:00,31.8,28.1,29.77,NE,38,0.0,0.0,86,0.00,-SN,,0.08,WeatherDisplay:10.37,2013-02-27 22:30:00,
2013-02-27 17:35:00,31.9,28.2,29.77,NE,38,0.0,0.0,86,0.00,-SN,,0.08,WeatherDisplay:10.37,2013-02-27 22:35:00,
2013-02-27 17:40:00,31.9,28.2,29.76,NE,38,0.0,0.0,86,0.01,-SN,,0.09,WeatherDisplay:10.37,2013-02-27 22:40:00,
2013-02-27 17:45:00,31.8,28.1,29.76,NE,38,0.0,0.0,86,0.00,RA,,0.09,WeatherDisplay:10.37,2013-02-27 22:45:00,
2013-02-27 17:50:00,31.8,28.1,29.76,NE,38,0.0,0.0,86,0.00,OVC,,0.09,WeatherDisplay:10.37,2013-02-27 22:50:00,
2013-02-27 17:55:00,31.9,28.2,29.76,NE,38,0.0,0.0,86,0.00,-SN,,0.09,WeatherDisplay:10.37,2013-02-27 22:55:00,
2013-02-27 18:00:00,31.9,28.2,29.76,NE,38,0.0,0.0,86,0.00,-SN,,0.09,WeatherDisplay:10.37,2013-02-27 23:00:00,
2013-02-27 18:05:00,31.8,29.5,29.76,NE,38,0.0,0.0,91,0.00,-SN,,0.09,WeatherDisplay:10.37,2013-02-27 23:05:00,
2013-02-27 18:10:00,31.8,29.5,29.76,NE,38,0.0,0.0,91,0.00,-SN,,0.09,WeatherDisplay:10.37,2013-02-27 23:10:00,
2013-02-27 18:15:00,31.8,28.1,29.76,NE,38,0.0,0.0,86,0.00,-SN,,0.09,WeatherDisplay:10.37,2013-02-27 23:15:00,
2013-02-27 18:20:00,31.8,28.1,29.75,NE,38,0.0,0.0,86,0.00,-SN,,0.09,WeatherDisplay:10.37,2013-02-27 23:20:00,
2013-02-27 18:25:00,31.8,28.1,29.75,NE,38,0.0,0.0,86,0.00,-SN,,0.09,WeatherDisplay:10.37,2013-02-27 23:25:00,
2013-02-27 18:30:00,31.8,28.1,29.75,NE,38,0.0,0.0,86,0.00,-SN,,0.09,WeatherDisplay:10.37,2013-02-27 23:30:00,
2013-02-27 18:35:00,31.8,28.1,29.75,NE,38,0.0,0.0,86,0.00,-SN,,0.09,WeatherDisplay:10.37,2013-02-27 23:35:00,
2013-02-27 18:40:00,31.8,28.1,29.75,NE,38,0.0,0.0,86,0.00,-SN,,0.09,WeatherDisplay:10.37,2013-02-27 23:40:00,
2013-02-27 18:50:00,31.8,28.1,29.75,NE,38,0.0,0.0,86,0.00,-SN,,0.09,WeatherDisplay:10.37,2013-02-27 23:50:00,
2013-02-27 18:55:00,31.8,28.1,29.75,NE,38,0.0,0.0,86,0.00,-SN,,0.09,WeatherDisplay:10.37,2013-02-27 23:55:00,
2013-02-27 19:00:00,31.8,28.1,29.75,NE,38,0.0,0.0,86,0.00,-SN,,0.09,WeatherDisplay:10.37,2013-02-28 00:00:00,
2013-02-27 19:05:00,31.8,28.6,29.75,NE,38,0.0,0.0,88,0.00,-SN,,0.09,WeatherDisplay:10.37,2013-02-28 00:05:00,
2013-02-27 19:10:00,31.7,28.6,29.74,NE,38,0.0,0.0,88,0.00,-SN,,0.09,WeatherDisplay:10.37,2013-02-28 00:10:00,
2013-02-27 19:15:00,31.8,28.7,29.73,NE,38,0.0,0.0,88,0.00,-SN,,0.09,WeatherDisplay:10.37,2013-02-28 00:15:00,
2013-02-27 19:20:00,31.7,28.6,29.73,NE,38,0.0,0.0,88,0.00,-SN,,0.09,WeatherDisplay:10.37,2013-02-28 00:20:00,
2013-02-27 19:25:00,31.6,28.5,29.72,NE,38,0.0,0.0,88,0.00,-SN,,0.09,WeatherDisplay:10.37,2013-02-28 00:25:00,
2013-02-27 19:30:00,31.7,28.6,29.72,NE,38,0.0,0.0,88,0.00,-SN,,0.09,WeatherDisplay:10.37,2013-02-28 00:30:00,
2013-02-27 19:35:00,31.7,28.6,29.71,NE,38,0.0,0.0,88,0.00,-SN,,0.09,WeatherDisplay:10.37,2013-02-28 00:35:00,
2013-02-27 19:40:00,31.7,28.5,29.71,NE,38,0.0,0.0,88,0.01,-SN,,0.10,WeatherDisplay:10.37,2013-02-28 00:40:00,
2013-02-27 19:50:00,31.7,28.5,29.72,NE,38,0.0,0.0,88,0.00,-SN,,0.10,WeatherDisplay:10.37,2013-02-28 00:50:00,
2013-02-27 19:55:00,31.6,28.4,29.72,NE,38,0.0,0.0,88,0.00,-SN,,0.10,WeatherDisplay:10.37,2013-02-28 00:55:00,
2013-02-27 20:00:00,31.8,28.6,29.72,NE,38,0.0,0.0,88,0.00,-SN,,0.10,WeatherDisplay:10.37,2013-02-28 01:00:00,
2013-02-27 20:05:00,31.7,28.6,29.73,NE,38,0.0,0.0,88,0.00,-SN,,0.10,WeatherDisplay:10.37,2013-02-28 01:05:00,
2013-02-27 20:15:00,31.7,28.0,29.73,NE,38,0.0,0.0,86,0.00,-SN,,0.10,WeatherDisplay:10.37,2013-02-28 01:15:00,
2013-02-27 20:20:00,31.7,28.0,29.72,NE,38,0.0,0.0,86,0.00,-SN,,0.10,WeatherDisplay:10.37,2013-02-28 01:20:00,
2013-02-27 20:25:00,31.6,27.8,29.72,NE,38,0.0,0.0,86,0.00,-SN,,0.10,WeatherDisplay:10.37,2013-02-28 01:25:00,
2013-02-27 20:30:00,31.5,27.8,29.72,NE,38,0.0,0.0,86,0.00,-SN,,0.10,WeatherDisplay:10.37,2013-02-28 01:30:00,
2013-02-27 20:40:00,31.7,28.0,29.72,NE,38,0.0,0.0,86,0.00,-SN,,0.10,WeatherDisplay:10.37,2013-02-28 01:40:00,
2013-02-27 20:45:00,31.6,27.9,29.72,NE,38,0.0,0.0,86,0.00,-SN,,0.10,WeatherDisplay:10.37,2013-02-28 01:45:00,
2013-02-27 20:55:00,31.6,27.9,29.71,NE,38,0.0,0.0,86,0.00,OVC,,0.10,WeatherDisplay:10.37,2013-02-28 01:55:00,
2013-02-27 21:00:00,31.7,28.0,29.71,NE,38,0.0,0.0,86,0.00,OVC,,0.10,WeatherDisplay:10.37,2013-02-28 02:00:00,
2013-02-27 21:05:00,31.7,28.5,29.71,NE,38,0.0,0.0,88,0.00,OVC,,0.10,WeatherDisplay:10.37,2013-02-28 02:05:00,
2013-02-27 21:10:00,31.7,28.5,29.71,NE,38,0.0,0.0,88,0.00,OVC,,0.10,WeatherDisplay:10.37,2013-02-28 02:10:00,
2013-02-27 21:15:00,31.7,28.6,29.71,NE,38,0.0,0.0,88,0.00,OVC,,0.10,WeatherDisplay:10.37,2013-02-28 02:15:00,
2013-02-27 21:20:00,31.7,28.5,29.71,NE,38,0.0,0.0,88,0.00,OVC,,0.10,WeatherDisplay:10.37,2013-02-28 02:20:00,
2013-02-27 21:25:00,31.7,29.7,29.71,NE,38,0.0,0.0,92,0.00,-SN,,0.10,WeatherDisplay:10.37,2013-02-28 02:25:00,
2013-02-27 21:30:00,31.6,29.6,29.70,NE,38,0.0,0.0,92,0.00,-SN,,0.10,WeatherDisplay:10.37,2013-02-28 02:30:00,
2013-02-27 21:40:00,31.5,29.4,29.69,NE,38,0.0,0.0,92,0.00,-SN,,0.10,WeatherDisplay:10.37,2013-02-28 02:40:00,
2013-02-27 21:45:00,31.7,29.6,29.69,NE,38,0.0,0.0,92,0.00,-SN,,0.10,WeatherDisplay:10.37,2013-02-28 02:45:00,
2013-02-27 21:50:00,31.5,29.4,29.68,NE,38,0.0,0.0,92,0.00,-SN,,0.10,WeatherDisplay:10.37,2013-02-28 02:50:00,
2013-02-27 21:55:00,31.5,29.4,29.68,NE,38,0.0,0.0,92,0.00,-SN,,0.10,WeatherDisplay:10.37,2013-02-28 02:55:00,
2013-02-27 22:00:00,31.4,29.3,29.68,NE,38,0.0,0.0,92,0.00,-SN,,0.10,WeatherDisplay:10.37,2013-02-28 03:00:00,
2013-02-27 22:05:00,31.5,29.5,29.68,NE,38,0.0,0.0,92,0.00,-SN,,0.10,WeatherDisplay:10.37,2013-02-28 03:05:00,
2013-02-27 22:10:00,31.4,29.3,29.67,NE,38,0.0,0.0,92,0.00,-SN,,0.10,WeatherDisplay:10.37,2013-02-28 03:10:00,
2013-02-27 22:15:00,31.3,29.2,29.67,NE,38,0.0,0.0,92,0.00,-SN,,0.10,WeatherDisplay:10.37,2013-02-28 03:15:00,
2013-02-27 22:20:00,31.3,29.3,29.67,NE,38,0.0,0.0,92,0.00,-SN,,0.10,WeatherDisplay:10.37,2013-02-28 03:20:00,
2013-02-27 22:25:00,31.5,29.4,29.67,NE,38,0.0,0.0,92,0.00,-SN,,0.10,WeatherDisplay:10.37,2013-02-28 03:25:00,
2013-02-27 22:30:00,31.2,29.1,29.67,NE,38,0.0,0.0,92,0.00,-SN,,0.10,WeatherDisplay:10.37,2013-02-28 03:30:00,
2013-02-27 22:35:00,31.3,29.2,29.67,NE,38,0.0,0.0,92,0.00,-SN,,0.10,WeatherDisplay:10.37,2013-02-28 03:35:00,
2013-02-27 22:40:00,31.3,29.2,29.67,NE,38,0.0,0.0,92,0.00,-SN,,0.10,WeatherDisplay:10.37,2013-02-28 03:40:00,
2013-02-27 22:45:00,31.2,29.2,29.67,NE,38,0.0,0.0,92,0.00,-SN,,0.10,WeatherDisplay:10.37,2013-02-28 03:45:00,
2013-02-27 22:50:00,31.5,29.4,29.67,NE,38,0.0,0.0,92,0.00,-SN,,0.10,WeatherDisplay:10.37,2013-02-28 03:50:00,
2013-02-27 23:00:00,31.3,29.2,29.67,NE,38,0.0,0.0,92,0.00,OVC,,0.10,WeatherDisplay:10.37,2013-02-28 04:00:00,
2013-02-27 23:05:00,31.3,29.2,29.67,NE,38,0.0,0.0,92,0.00,OVC,,0.10,WeatherDisplay:10.37,2013-02-28 04:05:00,
2013-02-27 23:10:00,31.3,29.3,29.67,NE,38,0.0,0.0,92,0.00,OVC,,0.10,WeatherDisplay:10.37,2013-02-28 04:10:00,
2013-02-27 23:15:00,31.5,29.4,29.67,NE,38,0.0,0.0,92,0.00,OVC,,0.10,WeatherDisplay:10.37,2013-02-28 04:15:00,
2013-02-27 23:20:00,31.5,29.4,29.67,NE,38,0.0,0.0,92,0.00,OVC,,0.10,WeatherDisplay:10.37,2013-02-28 04:20:00,
2013-02-27 23:25:00,31.6,29.5,29.67,NE,38,0.0,0.0,92,0.00,OVC,,0.10,WeatherDisplay:10.37,2013-02-28 04:25:00,
2013-02-27 23:30:00,31.5,29.5,29.67,NE,38,0.0,0.0,92,0.00,OVC,,0.10,WeatherDisplay:10.37,2013-02-28 04:30:00,
2013-02-27 23:35:00,31.3,29.3,29.67,NE,38,0.0,0.0,92,0.00,OVC,,0.10,WeatherDisplay:10.37,2013-02-28 04:35:00,
2013-02-27 23:40:00,31.5,29.4,29.67,NE,38,0.0,0.0,92,0.00,OVC,,0.10,WeatherDisplay:10.37,2013-02-28 04:40:00,
2013-02-27 23:45:00,31.4,29.3,29.67,NE,38,0.0,0.0,92,0.00,OVC,,0.10,WeatherDisplay:10.37,2013-02-28 04:45:00,
2013-02-27 23:50:00,31.0,29.0,29.66,NE,38,0.0,0.0,92,0.00,OVC,,0.10,WeatherDisplay:10.37,2013-02-28 04:50:00,
2013-02-27 23:55:00,31.0,29.0,29.66,NE,38,0.0,0.0,92,0.00,OVC,,0.10,WeatherDisplay:10.37,2013-02-28 04:55:00,